Time;durP1;ratioP1;P1;durP2;ratioP2;P2;SDS_P1;SDS_P2;PMS_P1;PMS_P2;Temp;Humidity;BMP_temperature;BMP_pressure;BME280_temperature;BME280_humidity;BME280_pressure;Samples;Min_cycle;Max_cycle;Signal;HPM_P1;HPM_P2
2022/08/21 00:01:17;;;;;;;384.30;190.60;;;;;;;;;;5024309;28;20214;-70
2022/08/21 00:03:43;;;;;;;393.08;196.70;;;;;;;;;;5015685;28;20217;-70
2022/08/21 00:06:09;;;;;;;356.92;179.40;;;;;;;;;;5019794;28;20191;-70
2022/08/21 00:08:35;;;;;;;386.98;197.70;;;;;;;;;;5017580;28;20701;-69
2022/08/21 00:11:01;;;;;;;363.33;184.07;;;;;;;;;;5022109;28;20246;-70
2022/08/21 00:13:27;;;;;;;372.90;189.73;;;;;;;;;;5019904;28;20693;-70
2022/08/21 00:15:53;;;;;;;353.48;177.63;;;;;;;;;;5021424;28;20281;-70
2022/08/21 00:18:19;;;;;;;390.73;195.23;;;;;;;;;;5024092;28;20665;-70
2022/08/21 00:20:45;;;;;;;336.45;168.57;;;;;;;;;;5022212;28;20212;-69
2022/08/21 00:23:12;;;;;;;399.42;197.60;;;;;;;;;;5019829;28;20216;-69
2022/08/21 00:25:38;;;;;;;405.83;201.00;;;;;;;;;;5023586;28;20319;-70
2022/08/21 00:28:06;;;;;;;366.50;179.73;;;;;;;;;;5021233;28;20327;-69
2022/08/21 00:30:32;;;;;;;364.52;178.38;;;;;;;;;;5022417;28;20207;-70
2022/08/21 00:32:59;;;;;;;356.15;175.23;;;;;;;;;;5021393;28;20177;-70
2022/08/21 00:35:27;;;;;;;377.98;186.85;;;;;;;;;;5022945;28;20208;-70
2022/08/21 00:37:53;;;;;;;329.30;166.38;;;;;;;;;;5023628;28;20224;-70
2022/08/21 00:40:22;;;;;;;359.38;177.88;;;;;;;;;;5015754;28;20305;-69
2022/08/21 00:42:49;;;;;;;344.30;175.98;;;;;;;;;;5020078;28;20623;-70
2022/08/21 00:45:15;;;;;;;372.08;186.30;;;;;;;;;;5020782;28;20172;-70
2022/08/21 00:47:41;;;;;;;344.02;179.13;;;;;;;;;;5023801;28;20764;-70
2022/08/21 00:50:08;;;;;;;340.92;174.15;;;;;;;;;;5023130;28;20625;-70
2022/08/21 00:52:36;;;;;;;348.85;180.15;;;;;;;;;;5019438;28;20219;-71
2022/08/21 00:55:02;;;;;;;351.98;180.88;;;;;;;;;;5020782;28;20213;-70
2022/08/21 00:57:30;;;;;;;356.95;178.05;;;;;;;;;;5021955;28;20302;-70
2022/08/21 00:59:58;;;;;;;353.03;181.40;;;;;;;;;;5020265;28;20243;-70
2022/08/21 01:02:25;;;;;;;377.47;188.57;;;;;;;;;;5020042;28;20266;-70
2022/08/21 01:04:51;;;;;;;344.53;173.37;;;;;;;;;;5025960;28;20208;-70
2022/08/21 01:07:17;;;;;;;369.92;185.95;;;;;;;;;;5018360;28;21372;-70
2022/08/21 01:09:43;;;;;;;380.13;186.60;;;;;;;;;;5018716;28;20227;-70
2022/08/21 01:12:10;;;;;;;335.95;168.20;;;;;;;;;;5017173;28;20666;-70
2022/08/21 01:14:36;;;;;;;363.95;178.85;;;;;;;;;;5019330;28;20623;-70
2022/08/21 01:17:03;;;;;;;374.20;185.77;;;;;;;;;;5018982;28;20273;-70
2022/08/21 01:19:29;;;;;;;385.23;189.40;;;;;;;;;;5016827;28;20250;-70
2022/08/21 01:21:55;;;;;;;347.60;170.57;;;;;;;;;;5018985;28;20208;-70
2022/08/21 01:24:21;;;;;;;391.43;192.13;;;;;;;;;;5018990;28;20199;-69
2022/08/21 01:26:48;;;;;;;346.87;172.37;;;;;;;;;;5021889;28;20207;-70
2022/08/21 01:29:21;;;;;;;372.30;189.00;;;;;;;;;;5021436;28;20226;-70
2022/08/21 01:31:47;;;;;;;344.17;175.80;;;;;;;;;;5022132;28;20228;-71
2022/08/21 01:34:15;;;;;;;341.73;172.25;;;;;;;;;;5020444;28;20228;-70
2022/08/21 01:36:41;;;;;;;330.50;168.17;;;;;;;;;;5024918;28;20715;-70
2022/08/21 01:39:07;;;;;;;349.77;177.67;;;;;;;;;;5017210;28;20223;-70
2022/08/21 01:41:33;;;;;;;346.77;174.80;;;;;;;;;;5020412;28;20675;-70
2022/08/21 01:43:59;;;;;;;359.90;185.48;;;;;;;;;;5019753;28;20883;-70
2022/08/21 01:46:25;;;;;;;365.58;182.93;;;;;;;;;;5016764;28;20213;-70
2022/08/21 01:48:51;;;;;;;409.70;204.43;;;;;;;;;;5011704;28;20278;-70
2022/08/21 01:51:17;;;;;;;364.77;182.07;;;;;;;;;;5021102;28;20226;-70
2022/08/21 01:53:43;;;;;;;340.77;172.17;;;;;;;;;;5023513;28;20262;-70
2022/08/21 01:56:11;;;;;;;335.67;169.80;;;;;;;;;;5017927;28;20212;-70
2022/08/21 01:58:37;;;;;;;344.63;173.63;;;;;;;;;;5020179;28;20696;-70
2022/08/21 02:01:03;;;;;;;378.98;189.23;;;;;;;;;;5017163;28;20282;-70
2022/08/21 02:03:29;;;;;;;399.70;197.60;;;;;;;;;;5019325;28;20207;-70
2022/08/21 02:05:56;;;;;;;343.27;169.43;;;;;;;;;;5017103;28;20185;-71
2022/08/21 02:08:23;;;;;;;344.33;174.20;;;;;;;;;;5021231;28;20216;-70
2022/08/21 02:10:49;;;;;;;351.03;176.30;;;;;;;;;;5019060;28;20223;-70
2022/08/21 02:13:14;;;;;;;345.07;173.50;;;;;;;;;;5020568;28;20212;-70
2022/08/21 02:15:41;;;;;;;387.30;190.67;;;;;;;;;;5013994;28;20220;-70
2022/08/21 02:18:07;;;;;;;360.80;178.10;;;;;;;;;;5016698;28;20388;-70
2022/08/21 02:20:34;;;;;;;376.48;185.60;;;;;;;;;;5016612;28;20247;-70
2022/08/21 02:23:00;;;;;;;359.47;179.70;;;;;;;;;;5019194;28;20215;-70
2022/08/21 02:25:27;;;;;;;365.10;184.55;;;;;;;;;;5022231;28;20220;-70
2022/08/21 02:27:53;;;;;;;348.45;173.75;;;;;;;;;;5021897;28;20605;-70
2022/08/21 02:30:22;;;;;;;356.47;178.20;;;;;;;;;;5019388;28;20203;-70
2022/08/21 02:32:48;;;;;;;334.38;167.77;;;;;;;;;;5023601;28;20251;-70
2022/08/21 02:35:14;;;;;;;336.35;167.60;;;;;;;;;;5020240;28;20258;-70
2022/08/21 02:37:44;;;;;;;363.65;175.63;;;;;;;;;;5022189;28;20209;-70
2022/08/21 02:40:11;;;;;;;355.75;186.57;;;;;;;;;;5003823;23;1082179;-68
2022/08/21 02:42:38;;;;;;;388.75;208.88;;;;;;;;;;5008449;28;20196;-69
2022/08/21 02:45:04;;;;;;;374.70;200.90;;;;;;;;;;5007507;28;20181;-69
2022/08/21 02:47:30;;;;;;;377.52;199.27;;;;;;;;;;5007370;28;20209;-69
2022/08/21 02:49:56;;;;;;;353.63;189.50;;;;;;;;;;5011450;28;20227;-68
2022/08/21 02:52:23;;;;;;;370.37;197.00;;;;;;;;;;5003797;28;20237;-69
2022/08/21 02:54:49;;;;;;;386.10;202.87;;;;;;;;;;5004947;28;20626;-69
2022/08/21 02:57:15;;;;;;;370.70;195.50;;;;;;;;;;5008174;28;20218;-69
2022/08/21 02:59:40;;;;;;;404.83;211.33;;;;;;;;;;5005737;28;20275;-70
2022/08/21 03:02:07;;;;;;;407.07;210.30;;;;;;;;;;5003084;28;20221;-69
2022/08/21 03:04:32;;;;;;;403.07;207.43;;;;;;;;;;5004375;28;20224;-69
2022/08/21 03:06:58;;;;;;;391.33;204.73;;;;;;;;;;5006577;28;20212;-69
2022/08/21 03:09:24;;;;;;;387.73;204.37;;;;;;;;;;5013909;28;20311;-69
2022/08/21 03:11:51;;;;;;;384.87;202.50;;;;;;;;;;5011975;28;20214;-69
2022/08/21 03:14:17;;;;;;;371.63;194.63;;;;;;;;;;5016344;28;20289;-69
2022/08/21 03:16:43;;;;;;;393.57;202.20;;;;;;;;;;5012425;28;20289;-69
2022/08/21 03:19:09;;;;;;;370.13;195.10;;;;;;;;;;5016551;28;20690;-70
2022/08/21 03:21:35;;;;;;;424.77;220.20;;;;;;;;;;5011076;28;20193;-69
2022/08/21 03:24:01;;;;;;;397.70;205.80;;;;;;;;;;5008826;28;20201;-68
2022/08/21 03:26:27;;;;;;;356.33;195.50;;;;;;;;;;5006032;28;20220;-69
2022/08/21 03:28:53;;;;;;;390.50;210.43;;;;;;;;;;5014812;28;20764;-69
2022/08/21 03:31:21;;;;;;;361.27;186.90;;;;;;;;;;5009858;28;20534;-68
2022/08/21 03:33:47;;;;;;;389.90;199.37;;;;;;;;;;5008489;28;21520;-69
2022/08/21 03:36:13;;;;;;;383.07;197.37;;;;;;;;;;5010503;28;20704;-69
2022/08/21 03:38:39;;;;;;;384.77;198.03;;;;;;;;;;5011205;28;20227;-69
2022/08/21 03:41:06;;;;;;;362.50;192.57;;;;;;;;;;5005467;28;20709;-69
2022/08/21 03:43:32;;;;;;;395.03;203.90;;;;;;;;;;5010278;28;20216;-69
2022/08/21 03:45:58;;;;;;;370.37;194.33;;;;;;;;;;5010804;28;20217;-69
2022/08/21 03:48:24;;;;;;;375.97;195.80;;;;;;;;;;5010109;28;20797;-69
2022/08/21 03:50:52;;;;;;;364.07;189.87;;;;;;;;;;5010545;28;20201;-70
2022/08/21 03:53:18;;;;;;;381.57;196.57;;;;;;;;;;5008650;28;20209;-69
2022/08/21 03:55:45;;;;;;;416.40;214.20;;;;;;;;;;5009635;28;20221;-69
2022/08/21 03:58:11;;;;;;;374.30;198.30;;;;;;;;;;5006879;28;20696;-70
2022/08/21 04:00:37;;;;;;;371.10;195.27;;;;;;;;;;5006501;28;20669;-69
2022/08/21 04:03:03;;;;;;;377.43;193.93;;;;;;;;;;5008402;28;20338;-69
2022/08/21 04:05:29;;;;;;;413.20;209.37;;;;;;;;;;5009646;28;20720;-69
2022/08/21 04:08:00;;;;;;;377.97;194.90;;;;;;;;;;5009642;28;20685;-69
2022/08/21 04:10:27;;;;;;;407.03;210.77;;;;;;;;;;5003772;28;20705;-70
2022/08/21 04:12:54;;;;;;;368.03;190.33;;;;;;;;;;5006330;28;20224;-69
2022/08/21 04:15:21;;;;;;;424.10;215.60;;;;;;;;;;5008583;28;20189;-69
2022/08/21 04:17:48;;;;;;;377.70;197.07;;;;;;;;;;5003222;28;20217;-69
2022/08/21 04:20:13;;;;;;;378.47;205.50;;;;;;;;;;5009944;28;20240;-69
2022/08/21 04:22:39;;;;;;;376.90;193.67;;;;;;;;;;5011781;28;20217;-70
2022/08/21 04:25:07;;;;;;;402.00;205.17;;;;;;;;;;5010906;28;20272;-70
2022/08/21 04:27:33;;;;;;;387.47;200.73;;;;;;;;;;5009312;28;20631;-70
2022/08/21 04:29:59;;;;;;;376.27;193.93;;;;;;;;;;5009919;28;20306;-69
2022/08/21 04:32:26;;;;;;;383.30;198.00;;;;;;;;;;5007222;28;20351;-69
2022/08/21 04:34:59;;;;;;;377.60;196.33;;;;;;;;;;5011610;28;20212;-69
2022/08/21 04:37:25;;;;;;;383.00;197.93;;;;;;;;;;5008621;28;20223;-69
2022/08/21 04:39:50;;;;;;;375.83;195.67;;;;;;;;;;5009950;28;20223;-68
2022/08/21 04:42:17;;;;;;;440.27;225.33;;;;;;;;;;5005922;28;20194;-68
2022/08/21 04:44:43;;;;;;;367.87;196.67;;;;;;;;;;5007405;28;20708;-67
2022/08/21 04:47:09;;;;;;;382.63;200.80;;;;;;;;;;5004904;28;20209;-67
2022/08/21 04:49:34;;;;;;;417.47;215.27;;;;;;;;;;5004970;28;20315;-68
2022/08/21 04:52:00;;;;;;;371.67;197.43;;;;;;;;;;5005342;28;20645;-67
2022/08/21 04:54:26;;;;;;;365.23;188.83;;;;;;;;;;5007316;28;20215;-67
2022/08/21 04:56:54;;;;;;;372.50;189.67;;;;;;;;;;5003667;28;20349;-68
2022/08/21 04:59:23;;;;;;;454.13;234.93;;;;;;;;;;5006184;28;20306;-68
2022/08/21 05:01:49;;;;;;;478.73;242.83;;;;;;;;;;5003931;28;20212;-68
2022/08/21 05:04:17;;;;;;;372.97;190.87;;;;;;;;;;5008260;28;20219;-68
2022/08/21 05:06:46;;;;;;;397.00;208.13;;;;;;;;;;5008999;28;20301;-67
2022/08/21 05:09:13;;;;;;;356.53;183.20;;;;;;;;;;5010604;28;20432;-68
2022/08/21 05:11:40;;;;;;;398.67;202.10;;;;;;;;;;5004801;28;20530;-67
2022/08/21 05:14:06;;;;;;;357.52;184.88;;;;;;;;;;5016147;28;20232;-68
2022/08/21 05:16:32;;;;;;;410.37;211.23;;;;;;;;;;5005611;28;20295;-66
2022/08/21 05:18:58;;;;;;;374.47;194.57;;;;;;;;;;5008655;28;20463;-68
2022/08/21 05:21:24;;;;;;;432.07;221.93;;;;;;;;;;5002392;28;20431;-67
2022/08/21 05:23:50;;;;;;;400.30;206.00;;;;;;;;;;5006177;28;20193;-67
2022/08/21 05:26:16;;;;;;;397.07;203.73;;;;;;;;;;5008307;28;20217;-68
2022/08/21 05:28:42;;;;;;;402.70;205.80;;;;;;;;;;5006971;28;20220;-66
2022/08/21 05:31:08;;;;;;;487.07;252.20;;;;;;;;;;5001491;28;20221;-68
2022/08/21 05:33:34;;;;;;;425.73;216.47;;;;;;;;;;5003800;28;20180;-67
2022/08/21 05:36:00;;;;;;;356.13;186.93;;;;;;;;;;5010326;28;20204;-68
2022/08/21 05:38:28;;;;;;;394.77;204.10;;;;;;;;;;5006240;28;20325;-67
2022/08/21 05:40:54;;;;;;;398.80;208.17;;;;;;;;;;5009156;28;20224;-67
2022/08/21 05:43:20;;;;;;;365.00;190.83;;;;;;;;;;5010212;28;20212;-66
2022/08/21 05:45:46;;;;;;;406.45;210.57;;;;;;;;;;5004797;28;20220;-68
2022/08/21 05:48:16;;;;;;;386.10;200.23;;;;;;;;;;5006327;28;20817;-66
2022/08/21 05:50:43;;;;;;;376.87;192.33;;;;;;;;;;5009266;28;20232;-67
2022/08/21 05:53:09;;;;;;;370.53;193.13;;;;;;;;;;5011086;28;20374;-67
2022/08/21 05:55:36;;;;;;;408.63;209.67;;;;;;;;;;5005470;28;20221;-66
2022/08/21 05:58:02;;;;;;;375.27;197.87;;;;;;;;;;5003515;28;20213;-70
2022/08/21 06:00:28;;;;;;;395.90;206.30;;;;;;;;;;5007388;28;20599;-70
2022/08/21 06:02:54;;;;;;;371.73;193.83;;;;;;;;;;5015773;28;20184;-71
2022/08/21 06:05:20;;;;;;;427.93;222.33;;;;;;;;;;5010979;28;20228;-72
2022/08/21 06:07:46;;;;;;;403.80;215.23;;;;;;;;;;5009863;28;20756;-71
2022/08/21 06:10:12;;;;;;;378.23;197.53;;;;;;;;;;5011945;28;20215;-72
2022/08/21 06:12:38;;;;;;;400.83;212.27;;;;;;;;;;5005713;28;20347;-72
2022/08/21 06:15:04;;;;;;;387.00;203.17;;;;;;;;;;5010958;28;20201;-71
2022/08/21 06:17:30;;;;;;;417.13;214.43;;;;;;;;;;5002019;28;20629;-71
2022/08/21 06:19:56;;;;;;;378.57;199.63;;;;;;;;;;5009344;28;20366;-70
2022/08/21 06:22:22;;;;;;;368.73;200.30;;;;;;;;;;5011993;28;20307;-71
2022/08/21 06:24:48;;;;;;;376.63;201.03;;;;;;;;;;5005883;28;20338;-72
2022/08/21 06:27:15;;;;;;;421.27;216.60;;;;;;;;;;5003169;28;20185;-72
2022/08/21 06:29:41;;;;;;;418.30;214.90;;;;;;;;;;5005767;28;21295;-72
2022/08/21 06:32:08;;;;;;;397.50;206.47;;;;;;;;;;5006328;28;20224;-72
2022/08/21 06:34:37;;;;;;;429.87;222.70;;;;;;;;;;5009556;28;20227;-72
2022/08/21 06:37:03;;;;;;;377.13;197.13;;;;;;;;;;5012839;28;20269;-71
2022/08/21 06:39:29;;;;;;;393.17;204.32;;;;;;;;;;5009361;28;20220;-73
2022/08/21 06:41:55;;;;;;;403.77;213.52;;;;;;;;;;4997600;28;20181;-73
2022/08/21 06:44:21;;;;;;;389.80;205.50;;;;;;;;;;5010097;28;20254;-72
2022/08/21 06:46:48;;;;;;;443.30;234.33;;;;;;;;;;5005819;28;20318;-73
2022/08/21 06:49:13;;;;;;;414.43;217.93;;;;;;;;;;5009850;28;20220;-77
2022/08/21 06:51:40;;;;;;;423.07;228.93;;;;;;;;;;5011480;28;20184;-72
2022/08/21 06:54:06;;;;;;;387.93;205.97;;;;;;;;;;5013992;28;20180;-74
2022/08/21 06:56:33;;;;;;;388.43;207.43;;;;;;;;;;5005354;28;20217;-70
2022/08/21 06:58:59;;;;;;;378.25;210.00;;;;;;;;;;5007962;28;20212;-71
2022/08/21 07:01:26;;;;;;;475.58;260.83;;;;;;;;;;5004384;28;20227;-72
2022/08/21 07:03:52;;;;;;;395.10;210.43;;;;;;;;;;5009867;28;20212;-72
2022/08/21 07:06:18;;;;;;;376.77;203.30;;;;;;;;;;5011756;28;20189;-70
2022/08/21 07:08:44;;;;;;;394.98;217.45;;;;;;;;;;5011425;28;20298;-70
2022/08/21 07:11:15;;;;;;;432.47;237.33;;;;;;;;;;5010841;28;20208;-71
2022/08/21 07:13:41;;;;;;;383.73;211.68;;;;;;;;;;5006275;28;20208;-70
2022/08/21 07:16:08;;;;;;;382.40;213.93;;;;;;;;;;5013026;28;20243;-71
2022/08/21 07:18:34;;;;;;;383.93;214.17;;;;;;;;;;5009167;28;20337;-70
2022/08/21 07:21:01;;;;;;;380.67;214.02;;;;;;;;;;5006964;28;20660;-70
2022/08/21 07:23:32;;;;;;;385.20;218.03;;;;;;;;;;5014037;28;20243;-68
2022/08/21 07:25:59;;;;;;;407.20;229.73;;;;;;;;;;5006246;28;20209;-73
2022/08/21 07:28:25;;;;;;;415.92;232.20;;;;;;;;;;5007207;28;20266;-71
2022/08/21 07:30:52;;;;;;;390.25;209.73;;;;;;;;;;5006637;28;20262;-71
2022/08/21 07:33:17;;;;;;;435.42;236.38;;;;;;;;;;5007339;28;20188;-74
2022/08/21 07:35:43;;;;;;;451.65;243.93;;;;;;;;;;5010827;28;20289;-76
2022/08/21 07:38:09;;;;;;;384.23;207.37;;;;;;;;;;5007282;28;20255;-75
2022/08/21 07:40:35;;;;;;;404.80;220.97;;;;;;;;;;5009388;28;20431;-75
2022/08/21 07:43:01;;;;;;;396.75;223.70;;;;;;;;;;5012010;28;20300;-73
2022/08/21 07:45:28;;;;;;;375.05;207.88;;;;;;;;;;5013062;28;20677;-74
2022/08/21 07:47:54;;;;;;;398.63;214.00;;;;;;;;;;5008609;28;20656;-73
2022/08/21 07:50:20;;;;;;;367.65;200.40;;;;;;;;;;5006177;28;20213;-73
2022/08/21 07:52:47;;;;;;;438.10;233.60;;;;;;;;;;5007440;28;20339;-73
2022/08/21 07:55:14;;;;;;;443.80;239.75;;;;;;;;;;5003682;28;20273;-72
2022/08/21 07:57:40;;;;;;;421.40;231.57;;;;;;;;;;5006725;28;20745;-75
2022/08/21 08:00:08;;;;;;;397.52;211.90;;;;;;;;;;5004823;28;20278;-70
2022/08/21 08:02:34;;;;;;;463.27;249.73;;;;;;;;;;5002973;28;20274;-67
2022/08/21 08:05:01;;;;;;;412.43;232.27;;;;;;;;;;5008066;28;20535;-73
2022/08/21 08:07:27;;;;;;;396.77;219.38;;;;;;;;;;5006627;28;20303;-72
2022/08/21 08:09:53;;;;;;;367.17;205.50;;;;;;;;;;5009618;28;21022;-73
2022/08/21 08:12:19;;;;;;;386.93;220.90;;;;;;;;;;5009406;28;20307;-73
2022/08/21 08:14:45;;;;;;;430.70;241.45;;;;;;;;;;5004995;28;20212;-74
2022/08/21 08:17:13;;;;;;;416.97;239.67;;;;;;;;;;5004125;28;20212;-74
2022/08/21 08:19:38;;;;;;;426.60;235.95;;;;;;;;;;5014001;28;20298;-75
2022/08/21 08:22:13;;;;;;;438.50;248.17;;;;;;;;;;5006297;28;20283;-74
2022/08/21 08:24:39;;;;;;;409.10;237.02;;;;;;;;;;5014872;28;20256;-74
2022/08/21 08:27:05;;;;;;;364.67;215.48;;;;;;;;;;5007125;28;20700;-74
2022/08/21 08:29:31;;;;;;;382.08;224.02;;;;;;;;;;5011296;28;20232;-73
2022/08/21 08:31:57;;;;;;;394.75;226.93;;;;;;;;;;5008311;28;20235;-74
2022/08/21 08:34:23;;;;;;;407.92;235.10;;;;;;;;;;5008292;28;20734;-74
2022/08/21 08:36:49;;;;;;;414.35;237.15;;;;;;;;;;5008778;28;20512;-74
2022/08/21 08:42:22;;;;;;;382.02;219.65;;;;;;;;;;5046565;28;20664;-54
2022/08/21 08:44:48;;;;;;;403.35;223.73;;;;;;;;;;5010625;28;20506;-54
2022/08/21 08:47:15;;;;;;;387.65;220.45;;;;;;;;;;4998119;28;20214;-54
2022/08/21 08:49:47;;;;;;;365.02;208.35;;;;;;;;;;5000252;28;20258;-55
2022/08/21 08:52:30;;;;;;;418.08;226.85;;;;;;;;;;5006895;28;20703;-54
2022/08/21 08:54:56;;;;;;;383.02;220.45;;;;;;;;;;5003711;28;20213;-55
2022/08/21 08:57:23;;;;;;;391.65;214.13;;;;;;;;;;5004564;28;20708;-54
2022/08/21 08:59:52;;;;;;;387.85;218.68;;;;;;;;;;5009825;28;20212;-54
2022/08/21 09:02:19;;;;;;;375.83;210.70;;;;;;;;;;5010943;28;20220;-54
2022/08/21 09:04:49;;;;;;;391.48;214.45;;;;;;;;;;5009647;28;20670;-54
2022/08/21 09:07:25;;;;;;;388.95;214.38;;;;;;;;;;5009023;28;20281;-54
2022/08/21 09:10:01;;;;;;;414.15;227.23;;;;;;;;;;5004291;28;21033;-54
2022/08/21 09:12:30;;;;;;;377.45;213.43;;;;;;;;;;5002369;28;20267;-54
2022/08/21 09:15:17;;;;;;;356.75;193.60;;;;;;;;;;5011387;28;20212;-54
2022/08/21 09:17:43;;;;;;;379.52;201.63;;;;;;;;;;5009021;28;20338;-54
2022/08/21 09:20:16;;;;;;;380.98;209.18;;;;;;;;;;5009930;28;20216;-55
2022/08/21 09:22:58;;;;;;;386.23;217.82;;;;;;;;;;5008603;28;20217;-54
2022/08/21 09:25:28;;;;;;;368.23;203.55;;;;;;;;;;5006480;28;20231;-54
2022/08/21 09:27:54;;;;;;;365.95;201.23;;;;;;;;;;5012243;28;20208;-54
2022/08/21 09:30:23;;;;;;;347.15;187.25;;;;;;;;;;5010343;28;20278;-54
2022/08/21 09:32:49;;;;;;;353.17;191.00;;;;;;;;;;5014292;28;20224;-53
2022/08/21 09:35:17;;;;;;;359.95;204.13;;;;;;;;;;5024434;28;20208;-52
2022/08/21 09:37:46;;;;;;;341.70;192.23;;;;;;;;;;5020264;28;20205;-54
2022/08/21 09:40:30;;;;;;;347.50;191.02;;;;;;;;;;5025146;28;20626;-54
2022/08/21 09:43:02;;;;;;;341.92;187.43;;;;;;;;;;5015882;28;20246;-52
2022/08/21 09:45:28;;;;;;;348.63;200.57;;;;;;;;;;5024722;28;20494;-53
2022/08/21 09:47:54;;;;;;;344.75;197.60;;;;;;;;;;5017551;28;20176;-53
2022/08/21 09:50:21;;;;;;;353.10;198.25;;;;;;;;;;5024636;28;20216;-52
2022/08/21 09:52:58;;;;;;;355.58;206.68;;;;;;;;;;5016424;28;20593;-54
2022/08/21 09:58:20;;;;;;;346.17;192.60;;;;;;;;;;5007265;28;20278;-53
2022/08/21 10:00:56;;;;;;;337.20;196.25;;;;;;;;;;5011730;28;20735;-53
2022/08/21 10:03:24;;;;;;;357.00;194.20;;;;;;;;;;5010201;28;20212;-54
2022/08/21 10:06:05;;;;;;;422.60;240.80;;;;;;;;;;4995342;28;20220;-55
2022/08/21 10:08:32;;;;;;;384.38;218.52;;;;;;;;;;4985505;28;20272;-58
2022/08/21 10:11:12;;;;;;;393.90;212.40;;;;;;;;;;4998340;28;20217;-55
2022/08/21 10:13:44;;;;;;;464.75;249.38;;;;;;;;;;4980507;28;23155;-55
2022/08/21 10:16:33;;;;;;;380.30;212.85;;;;;;;;;;4986317;28;20324;-53
2022/08/21 10:19:22;;;;;;;379.98;222.00;;;;;;;;;;4983467;28;20248;-53
2022/08/21 10:21:59;;;;;;;459.27;254.70;;;;;;;;;;4972165;28;20224;-54
2022/08/21 10:24:25;;;;;;;445.58;242.43;;;;;;;;;;4980409;28;20442;-54
2022/08/21 10:27:15;;;;;;;410.52;229.05;;;;;;;;;;4971293;28;20217;-53
2022/08/21 10:29:50;;;;;;;448.05;244.30;;;;;;;;;;4976881;28;20917;-54
2022/08/21 10:32:40;;;;;;;444.33;238.75;;;;;;;;;;4981683;28;20313;-54
2022/08/21 10:35:14;;;;;;;474.27;259.85;;;;;;;;;;4985070;28;20224;-53
2022/08/21 10:37:46;;;;;;;430.50;227.55;;;;;;;;;;4971609;28;20209;-53
2022/08/21 10:40:18;;;;;;;452.65;244.57;;;;;;;;;;4980946;28;20703;-54
2022/08/21 10:43:03;;;;;;;524.35;282.40;;;;;;;;;;4953166;28;21147;-54
2022/08/21 10:45:44;;;;;;;390.92;218.85;;;;;;;;;;4972156;28;20181;-54
2022/08/21 10:48:16;;;;;;;441.77;244.05;;;;;;;;;;4976773;28;20253;-53
2022/08/21 10:50:48;;;;;;;467.17;259.30;;;;;;;;;;4977494;28;20221;-53
2022/08/21 10:53:33;;;;;;;454.05;243.77;;;;;;;;;;4974528;28;20232;-54
2022/08/21 10:55:59;;;;;;;461.60;260.23;;;;;;;;;;4971449;28;20355;-54
2022/08/21 10:58:34;;;;;;;385.63;231.23;;;;;;;;;;4987114;28;20228;-54
2022/08/21 11:01:11;;;;;;;379.10;228.82;;;;;;;;;;4992569;28;20402;-54
2022/08/21 11:03:42;;;;;;;376.40;231.48;;;;;;;;;;4982612;28;20205;-55
2022/08/21 11:06:08;;;;;;;450.42;255.43;;;;;;;;;;4977048;28;20213;-54
2022/08/21 11:08:38;;;;;;;381.73;234.25;;;;;;;;;;4973488;28;20304;-54
2022/08/21 11:11:06;;;;;;;416.13;236.60;;;;;;;;;;4978249;28;20241;-54
2022/08/21 11:13:38;;;;;;;433.70;244.40;;;;;;;;;;4984940;28;20709;-54
2022/08/21 11:16:13;;;;;;;398.63;231.73;;;;;;;;;;4976785;28;20240;-54
2022/08/21 11:18:41;;;;;;;388.10;234.02;;;;;;;;;;4981283;28;20613;-54
2022/08/21 11:21:07;;;;;;;423.73;250.88;;;;;;;;;;4976758;28;20585;-54
2022/08/21 11:23:39;;;;;;;418.15;246.40;;;;;;;;;;4974995;28;20225;-54
2022/08/21 11:26:10;;;;;;;404.20;237.02;;;;;;;;;;4978891;28;20210;-54
2022/08/21 11:28:41;;;;;;;458.15;261.75;;;;;;;;;;4973503;28;20236;-54
2022/08/21 11:31:19;;;;;;;451.70;262.25;;;;;;;;;;4971943;28;20576;-54
2022/08/21 11:33:55;;;;;;;424.05;252.00;;;;;;;;;;4976500;28;20224;-54
2022/08/21 11:36:33;;;;;;;502.67;285.88;;;;;;;;;;4968293;28;21970;-54
2022/08/21 11:39:14;;;;;;;396.38;238.52;;;;;;;;;;4982235;28;20228;-54
2022/08/21 11:42:00;;;;;;;458.15;272.20;;;;;;;;;;4981288;28;20217;-56
2022/08/21 11:44:45;;;;;;;381.70;238.98;;;;;;;;;;4992621;28;20709;-54
2022/08/21 11:47:15;;;;;;;403.90;248.38;;;;;;;;;;4964755;28;20267;-54
2022/08/21 11:49:44;;;;;;;412.50;254.38;;;;;;;;;;4976625;28;20217;-54
2022/08/21 11:52:25;;;;;;;369.58;238.00;;;;;;;;;;4990806;28;20229;-54
2022/08/21 11:55:06;;;;;;;422.75;258.88;;;;;;;;;;4990032;28;20217;-54
2022/08/21 11:57:32;;;;;;;423.10;263.27;;;;;;;;;;4978271;28;20227;-54
2022/08/21 12:00:01;;;;;;;373.80;246.07;;;;;;;;;;4989951;28;20185;-54
2022/08/21 12:02:34;;;;;;;475.88;279.95;;;;;;;;;;4978492;28;20227;-55
2022/08/21 12:05:01;;;;;;;399.63;251.65;;;;;;;;;;4981332;28;20217;-54
2022/08/21 12:07:38;;;;;;;383.38;254.88;;;;;;;;;;4976772;28;20222;-54
2022/08/21 12:10:07;;;;;;;387.90;255.90;;;;;;;;;;4994899;28;20704;-54
2022/08/21 12:12:38;;;;;;;416.77;269.65;;;;;;;;;;4984521;28;20193;-54
2022/08/21 12:15:10;;;;;;;409.75;260.73;;;;;;;;;;4992812;28;20244;-54
2022/08/21 12:17:38;;;;;;;443.02;283.33;;;;;;;;;;4984402;28;20216;-54
2022/08/21 12:20:27;;;;;;;348.40;235.80;;;;;;;;;;4993122;28;20628;-54
2022/08/21 12:23:02;;;;;;;369.90;247.10;;;;;;;;;;4961174;28;20321;-53
2022/08/21 12:25:36;;;;;;;515.80;317.67;;;;;;;;;;4971160;28;20240;-54
2022/08/21 12:28:06;;;;;;;374.98;248.65;;;;;;;;;;4988015;28;20258;-54
2022/08/21 12:30:37;;;;;;;424.25;267.95;;;;;;;;;;4986286;28;20211;-54
2022/08/21 12:33:05;;;;;;;427.73;273.45;;;;;;;;;;4976426;28;20211;-54
2022/08/21 12:35:43;;;;;;;404.50;263.58;;;;;;;;;;4986939;28;20284;-55
2022/08/21 12:38:20;;;;;;;407.65;275.85;;;;;;;;;;4982139;28;20576;-55
2022/08/21 12:40:52;;;;;;;424.70;281.80;;;;;;;;;;4988075;28;20310;-55
2022/08/21 12:43:20;;;;;;;402.58;270.98;;;;;;;;;;4986174;28;20323;-55
2022/08/21 12:45:48;;;;;;;444.35;290.48;;;;;;;;;;4984157;28;20217;-57
2022/08/21 12:48:20;;;;;;;398.20;270.23;;;;;;;;;;4988739;28;20872;-55
2022/08/21 12:50:52;;;;;;;429.85;292.83;;;;;;;;;;4998110;28;20371;-54
2022/08/21 12:53:24;;;;;;;377.05;267.65;;;;;;;;;;4992695;28;20299;-55
2022/08/21 12:55:50;;;;;;;395.27;279.65;;;;;;;;;;4990648;28;20210;-53
2022/08/21 12:58:17;;;;;;;371.25;267.23;;;;;;;;;;4996265;28;20221;-53
2022/08/21 13:00:48;;;;;;;371.38;269.30;;;;;;;;;;4995129;28;20218;-53
2022/08/21 13:03:15;;;;;;;376.38;270.25;;;;;;;;;;4992803;28;20229;-55
2022/08/21 13:05:41;;;;;;;440.42;288.27;;;;;;;;;;4991587;28;20209;-55
2022/08/21 13:08:07;;;;;;;401.50;271.88;;;;;;;;;;4993198;28;20215;-54
2022/08/21 13:10:35;;;;;;;382.02;274.88;;;;;;;;;;4992384;28;20739;-54
2022/08/21 13:13:05;;;;;;;396.67;283.27;;;;;;;;;;4989861;28;20221;-54
2022/08/21 13:15:33;;;;;;;376.92;274.13;;;;;;;;;;4992371;28;20185;-55
2022/08/21 13:18:02;;;;;;;388.65;275.17;;;;;;;;;;4989587;28;20271;-54
2022/08/21 13:20:32;;;;;;;376.55;266.95;;;;;;;;;;4995185;28;20221;-54
2022/08/21 13:23:00;;;;;;;412.15;271.00;;;;;;;;;;4987379;28;20212;-55
2022/08/21 13:25:28;;;;;;;396.65;259.35;;;;;;;;;;4988103;28;20217;-54
2022/08/21 13:28:08;;;;;;;406.42;262.88;;;;;;;;;;4988149;28;20352;-55
2022/08/21 13:30:35;;;;;;;404.13;271.27;;;;;;;;;;4996812;28;20208;-55
2022/08/21 13:33:02;;;;;;;375.45;253.35;;;;;;;;;;4989728;28;20633;-55
2022/08/21 13:35:31;;;;;;;416.92;275.48;;;;;;;;;;4985163;28;20236;-55
2022/08/21 13:37:58;;;;;;;419.58;281.00;;;;;;;;;;4986673;28;20216;-55
2022/08/21 13:40:26;;;;;;;436.50;282.50;;;;;;;;;;4991939;28;20708;-55
2022/08/21 13:42:53;;;;;;;426.95;286.65;;;;;;;;;;4990773;28;20240;-55
2022/08/21 13:45:23;;;;;;;413.27;285.75;;;;;;;;;;4989874;28;20617;-55
2022/08/21 13:47:50;;;;;;;454.42;296.25;;;;;;;;;;4990559;28;20220;-55
2022/08/21 13:50:18;;;;;;;401.42;273.80;;;;;;;;;;4992162;28;20212;-55
2022/08/21 13:52:48;;;;;;;440.70;296.65;;;;;;;;;;4980354;28;20217;-54
2022/08/21 13:55:17;;;;;;;386.75;273.05;;;;;;;;;;4998476;28;20255;-55
2022/08/21 13:57:43;;;;;;;374.42;273.27;;;;;;;;;;4990234;28;20225;-55
2022/08/21 14:00:13;;;;;;;416.00;292.90;;;;;;;;;;4992601;28;21050;-56
2022/08/21 14:02:41;;;;;;;427.52;288.58;;;;;;;;;;4988806;28;20398;-55
2022/08/21 14:05:08;;;;;;;396.52;279.77;;;;;;;;;;4989172;28;20458;-55